Time;durP1;ratioP1;P1;durP2;ratioP2;P2;SDS_P1;SDS_P2;PMS_P1;PMS_P2;Temp;Humidity;BMP_temperature;BMP_pressure;BME280_temperature;BME280_humidity;BME280_pressure;Samples;Min_cycle;Max_cycle;Signal;HPM_P1;HPM_P2
2023/05/01 00:00:52;;;;;;;5.00;2.50;;;;;;;15.00;38.04;99231.70;104493;1267;60462;-64
2023/05/01 00:03:19;;;;;;;3.70;2.70;;;;;;;15.09;38.06;99235.52;104584;1254;73934;-64
2023/05/01 00:05:47;;;;;;;3.10;2.40;;;;;;;15.18;38.04;99232.42;104355;1251;69765;-64
2023/05/01 00:08:14;;;;;;;6.10;2.20;;;;;;;15.23;37.98;99236.88;104556;1256;72093;-64
2023/05/01 00:10:41;;;;;;;2.10;2.00;;;;;;;15.27;37.80;99238.52;104526;1256;60640;-64
2023/05/01 00:13:08;;;;;;;2.80;2.10;;;;;;;15.30;37.70;99243.10;104320;1263;60469;-64
2023/05/01 00:15:36;;;;;;;1.90;1.70;;;;;;;15.33;37.52;99247.49;104538;1258;73443;-64
2023/05/01 00:18:03;;;;;;;1.90;1.70;;;;;;;15.34;37.50;99249.36;104468;1256;70222;-65
2023/05/01 00:20:30;;;;;;;4.00;1.80;;;;;;;15.36;37.43;99255.92;104454;1256;72053;-64
2023/05/01 00:22:57;;;;;;;2.10;1.70;;;;;;;15.43;37.73;99259.68;104445;1254;60670;-64
2023/05/01 00:25:24;;;;;;;2.50;2.00;;;;;;;15.45;37.48;99259.23;104415;1255;60566;-65
2023/05/01 00:27:51;;;;;;;3.60;1.80;;;;;;;15.46;37.71;99258.09;104561;1254;72930;-64
2023/05/01 00:30:18;;;;;;;2.30;1.90;;;;;;;15.52;37.45;99259.23;104589;1254;69396;-65
2023/05/01 00:32:45;;;;;;;3.40;2.20;;;;;;;15.59;37.36;99261.41;104626;1254;73434;-65
2023/05/01 00:35:12;;;;;;;3.20;2.30;;;;;;;15.63;37.32;99260.44;104588;1253;60538;-65
2023/05/01 00:37:39;;;;;;;3.80;2.60;;;;;;;15.66;37.38;99261.11;104386;1254;60452;-65
2023/05/01 00:40:07;;;;;;;4.10;2.40;;;;;;;15.69;37.35;99260.18;104489;1253;73680;-65
2023/05/01 00:42:36;;;;;;;3.10;2.80;;;;;;;15.71;37.27;99258.98;104767;1257;68715;-64
2023/05/01 00:45:03;;;;;;;;;;;;;;;15.75;37.33;99263.17;104498;1257;72226;-65
2023/05/01 00:47:30;;;;;;;5.30;2.50;;;;;;;15.80;37.13;99261.21;104654;1256;60519;-66
2023/05/01 00:49:57;;;;;;;3.10;2.80;;;;;;;15.78;37.48;99264.77;104371;1254;61119;-65
2023/05/01 00:52:24;;;;;;;3.70;2.70;;;;;;;15.79;37.48;99267.48;104476;1261;73885;-64
2023/05/01 00:54:51;;;;;;;7.40;3.10;;;;;;;15.79;37.59;99266.22;104364;1274;69086;-65
2023/05/01 00:57:19;;;;;;;4.00;3.10;;;;;;;15.80;37.84;99262.98;104416;1267;71745;-65
2023/05/01 00:59:47;;;;;;;4.70;3.10;;;;;;;15.79;37.79;99263.95;104970;1254;60440;-65
2023/05/01 01:02:14;;;;;;;3.50;3.20;;;;;;;15.78;38.23;99266.66;104477;1257;60556;-65
2023/05/01 01:04:43;;;;;;;3.40;3.10;;;;;;;15.79;38.61;99268.41;104437;1252;72862;-65
2023/05/01 01:07:31;;;;;;;4.40;3.00;;;;;;;15.79;38.43;99265.91;104653;1254;69604;-65
2023/05/01 01:10:10;;;;;;;4.10;3.00;;;;;;;15.76;38.65;99268.21;104600;1253;73493;-65
2023/05/01 01:13:03;;;;;;;4.40;3.20;;;;;;;15.73;38.99;99271.20;104391;1273;60542;-64
2023/05/01 01:15:49;;;;;;;4.60;3.70;;;;;;;15.67;39.38;99272.86;104476;1261;60566;-64
2023/05/01 01:18:24;;;;;;;3.40;3.10;;;;;;;15.69;39.31;99269.23;104547;1253;73174;-64
2023/05/01 01:20:55;;;;;;;3.30;3.00;;;;;;;15.64;39.76;99269.70;104476;1255;70349;-63
2023/05/01 01:23:38;;;;;;;4.20;2.70;;;;;;;15.64;40.34;99270.64;104297;1254;72036;-63
2023/05/01 01:26:23;;;;;;;3.80;2.80;;;;;;;15.68;40.20;99272.48;104494;1269;61435;-63
2023/05/01 01:29:21;;;;;;;4.60;3.40;;;;;;;15.64;40.39;99269.19;104490;1253;60438;-63
2023/05/01 01:31:48;;;;;;;;;;;;;;;15.55;40.44;99272.11;104307;1257;72954;-63
2023/05/01 01:34:26;;;;;;;4.30;3.10;;;;;;;15.49;40.83;99272.02;104526;1264;69671;-63
2023/05/01 01:37:01;;;;;;;4.40;3.10;;;;;;;15.41;40.48;99275.21;104265;1257;72737;-63
2023/05/01 01:39:29;;;;;;;4.40;3.60;;;;;;;15.36;40.67;99271.83;104594;1255;60852;-63
2023/05/01 01:44:42;;;;;;;4.90;3.80;;;;;;;14.32;43.87;99278.84;101536;1292;601107;-62
2023/05/01 01:47:10;;;;;;;4.90;3.90;;;;;;;15.27;41.89;99281.13;103724;1268;60549;-63
2023/05/01 01:49:41;;;;;;;7.00;3.80;;;;;;;15.31;42.73;99289.65;103704;1272;60808;-63
2023/05/01 01:52:09;;;;;;;5.20;3.90;;;;;;;15.34;42.91;99294.19;103854;1264;73391;-64
2023/05/01 01:54:38;;;;;;;5.70;3.60;;;;;;;15.25;42.89;99298.52;103219;1272;69400;-64
2023/05/01 01:57:06;;;;;;;4.50;3.90;;;;;;;15.22;42.66;99301.59;103691;1270;72902;-64
2023/05/01 01:59:33;;;;;;;7.90;4.30;;;;;;;15.17;42.27;99303.83;103900;1264;58967;-60
2023/05/01 02:02:02;;;;;;;4.70;3.80;;;;;;;14.99;43.13;99303.41;104005;1264;60692;-61
2023/05/01 02:04:29;;;;;;;7.50;4.10;;;;;;;14.91;42.59;99308.35;103872;1273;72692;-61
2023/05/01 02:06:57;;;;;;;4.90;3.90;;;;;;;14.87;42.94;99315.20;103941;1267;69444;-62
2023/05/01 02:09:25;;;;;;;6.40;4.30;;;;;;;14.81;43.01;99312.40;103634;1262;72200;-61
2023/05/01 02:11:54;;;;;;;5.00;3.70;;;;;;;14.94;43.01;99311.19;104006;1261;59911;-61
2023/05/01 02:14:22;;;;;;;4.80;4.20;;;;;;;14.94;43.65;99315.26;103945;1261;61230;-61
2023/05/01 02:16:50;;;;;;;4.60;3.60;;;;;;;14.97;43.66;99322.28;103868;1280;73511;-61
2023/05/01 02:19:17;;;;;;;4.50;3.70;;;;;;;14.93;44.00;99322.86;104038;1266;68905;-60
2023/05/01 02:21:45;;;;;;;5.50;3.20;;;;;;;14.92;44.30;99322.61;103910;1279;73019;-60
2023/05/01 02:24:13;;;;;;;3.40;3.10;;;;;;;14.88;44.82;99331.35;103909;1265;60939;-60
2023/05/01 02:26:46;;;;;;;4.50;2.90;;;;;;;14.85;44.80;99340.75;103905;1267;60699;-61
2023/05/01 02:29:13;;;;;;;4.70;3.50;;;;;;;14.89;45.00;99340.13;103942;1274;73031;-61
2023/05/01 02:31:40;;;;;;;4.10;3.30;;;;;;;14.94;45.18;99338.55;103946;1273;69238;-61
2023/05/01 02:34:08;;;;;;;2.90;2.70;;;;;;;14.97;44.84;99342.60;103995;1266;72606;-61
2023/05/01 02:36:35;;;;;;;5.10;3.30;;;;;;;14.93;44.48;99345.50;104030;1261;60416;-61
2023/05/01 02:39:03;;;;;;;4.90;3.20;;;;;;;15.01;45.05;99339.84;104020;1265;60458;-61
2023/05/01 02:41:30;;;;;;;3.80;2.80;;;;;;;15.05;44.46;99343.45;104000;1263;73415;-61
2023/05/01 02:44:03;;;;;;;3.50;3.20;;;;;;;15.01;44.43;99347.23;103785;1270;69793;-61
2023/05/01 02:46:35;;;;;;;3.50;3.20;;;;;;;14.98;44.40;99353.30;103837;1261;74045;-61
2023/05/01 02:49:02;;;;;;;3.30;2.90;;;;;;;14.99;44.31;99362.23;103897;1267;59851;-61
2023/05/01 02:51:32;;;;;;;4.00;2.90;;;;;;;14.98;44.59;99361.73;103876;1264;60237;-61
2023/05/01 02:53:59;;;;;;;3.40;3.00;;;;;;;14.94;44.94;99365.55;103921;1280;74273;-61
2023/05/01 02:56:27;;;;;;;3.30;2.60;;;;;;;14.94;45.63;99365.14;103826;1266;70523;-61
2023/05/01 02:58:55;;;;;;;3.00;2.50;;;;;;;15.00;45.93;99363.23;104060;1264;72327;-61
2023/05/01 03:01:22;;;;;;;4.40;2.80;;;;;;;14.98;46.03;99372.35;104032;1269;61377;-62
2023/05/01 03:03:50;;;;;;;3.00;2.70;;;;;;;14.94;46.31;99372.24;104021;1270;62414;-61
2023/05/01 03:06:18;;;;;;;4.00;2.70;;;;;;;14.96;46.26;99376.33;103821;1266;73084;-61
2023/05/01 03:08:46;;;;;;;2.30;2.10;;;;;;;14.94;46.45;99380.73;103881;1261;70028;-61
2023/05/01 03:11:14;;;;;;;3.60;2.30;;;;;;;14.94;46.32;99383.55;103795;1261;73052;-61
2023/05/01 03:13:42;;;;;;;;;;;;;;;14.99;46.17;99387.83;103943;1272;61264;-61
2023/05/01 03:16:09;;;;;;;2.30;2.10;;;;;;;14.91;47.30;99390.42;103952;1260;60739;-65
2023/05/01 03:18:37;;;;;;;2.30;2.10;;;;;;;14.94;47.42;99389.73;104079;1266;72814;-66
2023/05/01 03:21:04;;;;;;;2.70;2.50;;;;;;;14.91;47.32;99392.90;104052;1257;69799;-64
2023/05/01 03:23:31;;;;;;;2.40;2.10;;;;;;;14.93;47.00;99395.23;103902;1266;73301;-66
2023/05/01 03:25:59;;;;;;;3.50;2.70;;;;;;;14.92;47.52;99396.35;103826;1270;63716;-65
2023/05/01 03:28:26;;;;;;;2.50;2.30;;;;;;;14.98;47.50;99397.59;103916;1263;61147;-65
2023/05/01 03:30:53;;;;;;;2.70;2.10;;;;;;;14.94;47.23;99402.76;103862;1262;72477;-63
2023/05/01 03:33:20;;;;;;;2.60;2.10;;;;;;;14.95;48.25;99402.38;104017;1263;69634;-62
2023/05/01 03:35:48;;;;;;;3.30;2.40;;;;;;;14.96;47.80;99405.84;104293;1266;75475;-61
2023/05/01 03:38:15;;;;;;;2.90;2.70;;;;;;;15.01;47.46;99406.40;104031;1264;60918;-59
2023/05/01 03:41:01;;;;;;;2.70;2.20;;;;;;;15.01;48.53;99413.64;103921;1264;61316;-62
2023/05/01 03:43:46;;;;;;;3.40;2.40;;;;;;;15.00;49.43;99414.18;103823;1260;73464;-64
2023/05/01 03:46:27;;;;;;;2.10;1.90;;;;;;;14.97;48.49;99415.46;103924;1275;69880;-68
2023/05/01 03:48:54;;;;;;;2.10;2.00;;;;;;;14.94;49.07;99419.88;104146;1266;76699;-67
2023/05/01 03:51:22;;;;;;;2.70;2.10;;;;;;;14.98;48.72;99421.93;103900;1269;61409;-67
2023/05/01 03:53:51;;;;;;;;;;;;;;;15.00;48.65;99424.11;103843;1266;62061;-66
2023/05/01 03:56:18;;;;;;;1.90;1.80;;;;;;;15.04;49.19;99428.80;104374;1254;73789;-66
2023/05/01 03:58:46;;;;;;;1.80;1.60;;;;;;;14.94;49.50;99432.60;104382;1257;71793;-66
2023/05/01 04:01:14;;;;;;;2.20;2.10;;;;;;;14.98;48.05;99433.79;104500;1268;75342;-67
2023/05/01 04:03:42;;;;;;;2.30;2.00;;;;;;;15.02;48.56;99431.58;104373;1270;63317;-69
2023/05/01 04:06:10;;;;;;;;;;;;;;;15.07;48.91;99436.73;104342;1256;61620;-66
2023/05/01 04:08:37;;;;;;;2.30;2.10;;;;;;;15.11;48.97;99436.48;104343;1257;72978;-65
2023/05/01 04:11:05;;;;;;;2.30;2.10;;;;;;;15.08;48.31;99439.27;104439;1257;69548;-65
2023/05/01 04:13:32;;;;;;;;;;;;;;;15.15;48.37;99441.16;104379;1254;74923;-65
2023/05/01 04:16:01;;;;;;;2.20;2.00;;;;;;;15.24;49.83;99442.15;104533;1257;61503;-65
2023/05/01 04:18:28;;;;;;;9.90;1.90;;;;;;;15.29;48.51;99442.36;104333;1267;60720;-64
2023/05/01 04:20:57;;;;;;;2.40;1.70;;;;;;;15.38;48.27;99445.98;104383;1255;73464;-64
2023/05/01 04:23:25;;;;;;;4.90;1.90;;;;;;;15.50;47.85;99448.02;104271;1257;69352;-64
2023/05/01 04:25:53;;;;;;;2.20;2.00;;;;;;;15.53;47.31;99455.44;104450;1270;71910;-68
2023/05/01 04:28:21;;;;;;;2.00;1.80;;;;;;;15.62;47.81;99456.77;104439;1251;61423;-67
2023/05/01 04:30:48;;;;;;;2.00;1.60;;;;;;;15.73;47.05;99454.14;104799;1254;62276;-69
2023/05/01 04:33:15;;;;;;;2.20;1.60;;;;;;;15.85;46.71;99457.89;104916;1266;73152;-67
2023/05/01 04:35:42;;;;;;;3.50;1.70;;;;;;;15.94;46.45;99454.54;104512;1270;69490;-67
2023/05/01 04:38:10;;;;;;;4.60;1.70;;;;;;;15.97;46.51;99458.86;104369;1257;72880;-68
2023/05/01 04:40:38;;;;;;;2.60;1.80;;;;;;;16.11;46.14;99460.08;107329;1251;62547;-71
2023/05/01 04:43:05;;;;;;;2.80;1.60;;;;;;;16.18;45.81;99460.59;108462;1252;62267;-71
2023/05/01 04:45:32;;;;;;;2.60;1.30;;;;;;;16.29;45.42;99467.46;104552;1259;75696;-69
2023/05/01 04:48:00;;;;;;;1.60;1.50;;;;;;;16.35;45.20;99468.14;104404;1275;71008;-70
2023/05/01 04:50:27;;;;;;;2.60;1.10;;;;;;;16.43;44.86;99467.77;104363;1259;73022;-71
2023/05/01 04:52:55;;;;;;;2.80;1.50;;;;;;;16.49;44.35;99473.86;104285;1260;61235;-70
2023/05/01 04:55:22;;;;;;;3.50;1.60;;;;;;;16.53;44.09;99476.93;104268;1259;61806;-70
2023/05/01 04:58:10;;;;;;;;;;;;;;;16.63;43.58;99485.07;104493;1256;76000;-70
2023/05/01 05:00:38;;;;;;;1.60;1.20;;;;;;;16.70;43.43;99489.88;104342;1256;71028;-70
2023/05/01 05:03:06;;;;;;;1.80;1.30;;;;;;;16.73;42.94;99495.21;104423;1260;72700;-69
2023/05/01 05:05:34;;;;;;;1.30;1.20;;;;;;;16.74;42.82;99501.13;104295;1259;59847;-68
2023/05/01 05:08:03;;;;;;;1.40;1.10;;;;;;;16.84;42.71;99501.50;104349;1252;62870;-70
2023/05/01 05:10:35;;;;;;;3.30;1.10;;;;;;;16.93;42.13;99496.45;104431;1257;73550;-69
2023/05/01 05:13:20;;;;;;;2.80;1.30;;;;;;;17.01;42.08;99505.13;104597;1254;70524;-71
2023/05/01 05:15:53;;;;;;;1.10;1.00;;;;;;;17.06;41.87;99504.52;104511;1257;74075;-69
2023/05/01 05:18:21;;;;;;;1.60;1.10;;;;;;;17.14;41.54;99507.89;104482;1259;61350;-71
2023/05/01 05:20:49;;;;;;;2.60;1.10;;;;;;;17.15;41.22;99506.57;104489;1275;62119;-70
2023/05/01 05:23:17;;;;;;;2.10;1.30;;;;;;;17.23;40.98;99518.91;104366;1255;72912;-69
2023/05/01 05:25:44;;;;;;;7.30;1.10;;;;;;;17.25;40.73;99521.80;104384;1269;68860;-71
2023/05/01 05:28:12;;;;;;;2.50;1.10;;;;;;;17.31;40.76;99516.77;105011;1254;73350;-71
2023/05/01 05:30:39;;;;;;;2.20;1.20;;;;;;;17.35;40.98;99520.20;104710;1255;60289;-70
2023/05/01 05:33:07;;;;;;;;;;;;;;;17.35;40.50;99526.91;104723;1258;62235;-70
2023/05/01 05:35:35;;;;;;;;;;;;;;;17.58;40.18;99536.20;104651;1257;73866;-70
2023/05/01 05:38:02;;;;;;;0.90;0.90;;;;;;;17.70;39.79;99536.58;104383;1259;71990;-71
2023/05/01 05:40:32;;;;;;;2.30;0.80;;;;;;;17.77;39.81;99537.98;104382;1258;72505;-71
2023/05/01 05:42:59;;;;;;;1.60;1.10;;;;;;;17.79;38.88;99536.11;104704;1253;61283;-71
2023/05/01 05:45:28;;;;;;;1.80;1.20;;;;;;;17.86;39.31;99542.16;104822;1251;59818;-70
2023/05/01 05:47:55;;;;;;;;;;;;;;;17.87;39.42;99544.94;104398;1257;75495;-70
2023/05/01 05:50:24;;;;;;;1.30;0.80;;;;;;;17.97;38.95;99544.19;104410;1267;69402;-70
2023/05/01 05:52:51;;;;;;;0.80;0.70;;;;;;;18.02;39.15;99545.41;104266;1257;75536;-69
2023/05/01 05:55:18;;;;;;;1.50;0.90;;;;;;;18.11;39.21;99546.89;104575;1259;61160;-70
2023/05/01 05:57:58;;;;;;;1.40;1.00;;;;;;;18.18;38.75;99545.80;104494;1251;62277;-70
2023/05/01 06:00:25;;;;;;;2.80;1.00;;;;;;;18.23;38.69;99547.90;104675;1260;74809;-70
2023/05/01 06:02:52;;;;;;;1.40;0.90;;;;;;;18.36;37.99;99551.55;104533;1260;69693;-71
2023/05/01 06:05:20;;;;;;;3.90;1.10;;;;;;;18.40;37.81;99556.53;104590;1260;73210;-71
2023/05/01 06:07:48;;;;;;;2.00;0.80;;;;;;;18.50;37.75;99557.92;104420;1263;60527;-68
2023/05/01 06:10:15;;;;;;;3.90;1.00;;;;;;;18.57;37.64;99554.88;104624;1254;60909;-70
2023/05/01 06:12:43;;;;;;;5.70;0.90;;;;;;;18.69;37.48;99556.77;104448;1260;75981;-67
2023/05/01 06:15:23;;;;;;;5.20;1.10;;;;;;;18.64;36.55;99558.96;104653;1251;70819;-70
2023/05/01 06:17:52;;;;;;;2.70;1.00;;;;;;;18.62;35.31;99561.94;104451;1272;73942;-72
2023/05/01 06:20:19;;;;;;;1.40;0.80;;;;;;;18.75;36.11;99569.08;105110;1257;60631;-70
2023/05/01 06:22:47;;;;;;;;;;;;;;;18.79;35.35;99568.96;104906;1257;60556;-71
2023/05/01 06:25:20;;;;;;;0.90;0.80;;;;;;;18.95;35.66;99581.98;104822;1257;74703;-71
2023/05/01 06:27:51;;;;;;;1.50;0.90;;;;;;;19.01;35.66;99580.24;104467;1252;70445;-71
2023/05/01 06:30:20;;;;;;;4.90;0.80;;;;;;;19.07;34.24;99581.56;104527;1266;73212;-71
2023/05/01 06:32:49;;;;;;;1.30;0.70;;;;;;;19.05;34.32;99576.39;104582;1257;60639;-69
2023/05/01 06:35:16;;;;;;;;;;;;;;;19.11;33.24;99578.25;104587;1260;61365;-72
2023/05/01 06:37:43;;;;;;;1.00;0.60;;;;;;;19.17;33.87;99585.90;104886;1266;74162;-72
2023/05/01 06:40:11;;;;;;;0.70;0.60;;;;;;;19.18;33.47;99590.79;104818;1257;70986;-68
2023/05/01 06:42:38;;;;;;;4.50;0.70;;;;;;;19.35;33.89;99594.27;104561;1251;75104;-70
2023/05/01 06:45:06;;;;;;;1.00;0.60;;;;;;;19.43;32.79;99590.64;104906;1256;62634;-71
2023/05/01 06:47:33;;;;;;;1.10;0.50;;;;;;;19.52;30.57;99591.29;104574;1264;60892;-69
2023/05/01 06:50:01;;;;;;;1.40;0.90;;;;;;;19.59;31.97;99593.91;104852;1256;74700;-69
2023/05/01 06:52:32;;;;;;;1.20;0.60;;;;;;;19.71;32.20;99597.28;104956;1256;71942;-73
2023/05/01 06:55:00;;;;;;;1.40;0.80;;;;;;;19.81;32.25;99602.11;104972;1267;72893;-72
2023/05/01 06:57:27;;;;;;;1.80;0.60;;;;;;;19.80;30.46;99600.83;104737;1257;61353;-70
2023/05/01 06:59:54;;;;;;;0.60;0.60;;;;;;;19.84;31.01;99600.28;104368;1270;61383;-71
2023/05/01 07:02:22;;;;;;;1.30;0.60;;;;;;;19.87;30.76;99603.83;104954;1264;74381;-71
2023/05/01 07:04:49;;;;;;;0.80;0.70;;;;;;;19.84;30.14;99598.84;104451;1257;72131;-67
2023/05/01 07:07:16;;;;;;;1.60;0.60;;;;;;;19.89;30.79;99597.43;104494;1257;74218;-71
2023/05/01 07:09:44;;;;;;;2.50;0.60;;;;;;;20.03;29.38;99600.31;104471;1255;61594;-68
2023/05/01 07:12:11;;;;;;;1.30;0.60;;;;;;;20.08;28.60;99604.02;104279;1264;60452;-69
2023/05/01 07:14:40;;;;;;;4.80;0.50;;;;;;;20.20;29.37;99609.27;104465;1257;74298;-70
2023/05/01 07:17:08;;;;;;;0.80;0.60;;;;;;;20.19;28.45;99606.83;104514;1257;70475;-73
2023/05/01 07:19:35;;;;;;;3.90;0.70;;;;;;;20.23;29.00;99613.98;104453;1258;73147;-71
2023/05/01 07:22:03;;;;;;;0.80;0.60;;;;;;;20.31;27.76;99610.26;104699;1252;62549;-71
2023/05/01 07:24:30;;;;;;;1.90;0.90;;;;;;;20.49;28.91;99620.71;104691;1265;60531;-72
2023/05/01 07:26:58;;;;;;;1.40;0.90;;;;;;;20.52;28.95;99622.98;104976;1256;75092;-72
2023/05/01 07:29:25;;;;;;;;;;;;;;;20.62;28.84;99623.57;104609;1257;69411;-70
2023/05/01 07:31:53;;;;;;;1.20;0.50;;;;;;;20.72;28.10;99628.23;104461;1257;72866;-72
2023/05/01 07:34:20;;;;;;;0.80;0.60;;;;;;;20.80;28.54;99630.40;104556;1256;60826;-71
2023/05/01 07:36:47;;;;;;;1.00;0.60;;;;;;;20.88;28.27;99635.08;104321;1266;60980;-70
2023/05/01 07:39:16;;;;;;;3.10;0.50;;;;;;;21.02;28.78;99639.39;104885;1257;73655;-70
2023/05/01 07:41:43;;;;;;;1.60;0.60;;;;;;;21.08;28.70;99638.84;104844;1257;71121;-71
2023/05/01 07:44:11;;;;;;;1.50;0.60;;;;;;;21.22;28.38;99633.19;104733;1250;73540;-72
2023/05/01 07:46:38;;;;;;;0.80;0.60;;;;;;;21.32;28.12;99638.35;104348;1266;60607;-70
2023/05/01 07:49:05;;;;;;;1.10;0.50;;;;;;;21.33;28.23;99641.48;104493;1266;62510;-71
2023/05/01 07:51:32;;;;;;;0.50;0.50;;;;;;;21.32;28.07;99644.59;104476;1268;73441;-71
2023/05/01 07:54:03;;;;;;;1.20;0.60;;;;;;;21.44;28.40;99649.80;104545;1256;70967;-72
2023/05/01 07:56:30;;;;;;;1.50;0.50;;;;;;;21.45;27.59;99651.30;104580;1256;72929;-71
2023/05/01 07:58:58;;;;;;;0.90;0.60;;;;;;;21.58;28.08;99659.29;104471;1251;60543;-72
2023/05/01 08:01:25;;;;;;;0.80;0.60;;;;;;;21.64;27.95;99656.62;104961;1257;60821;-71
2023/05/01 08:03:52;;;;;;;0.60;0.50;;;;;;;21.63;27.03;99665.46;104619;1257;74452;-71
2023/05/01 08:06:19;;;;;;;5.60;0.60;;;;;;;21.57;27.64;99665.81;104328;1257;70256;-71
2023/05/01 08:08:47;;;;;;;1.80;0.40;;;;;;;21.64;27.25;99664.48;104704;1254;74049;-68
2023/05/01 08:11:15;;;;;;;2.10;0.70;;;;;;;21.67;27.29;99664.21;104475;1254;60551;-70
2023/05/01 08:13:42;;;;;;;2.20;0.80;;;;;;;21.68;27.30;99661.64;104491;1261;60512;-69
2023/05/01 08:16:09;;;;;;;2.00;0.40;;;;;;;21.73;26.85;99662.06;104511;1257;74070;-68
2023/05/01 08:18:36;;;;;;;1.50;0.40;;;;;;;21.68;26.57;99668.16;104605;1257;74081;-71
2023/05/01 08:21:04;;;;;;;0.60;0.50;;;;;;;21.66;26.70;99671.59;104359;1265;72540;-71
2023/05/01 08:23:31;;;;;;;1.10;0.60;;;;;;;21.80;26.74;99672.11;104531;1257;61281;-68
2023/05/01 08:25:58;;;;;;;1.10;0.50;;;;;;;21.81;26.07;99669.91;104859;1253;60624;-71
2023/05/01 08:28:26;;;;;;;1.20;0.40;;;;;;;21.86;25.90;99670.88;104895;1257;74695;-72
2023/05/01 08:30:53;;;;;;;2.60;0.80;;;;;;;21.93;26.60;99671.91;104855;1257;69595;-70
2023/05/01 08:33:20;;;;;;;0.60;0.50;;;;;;;21.94;25.82;99663.74;104766;1253;74257;-69
2023/05/01 08:35:47;;;;;;;0.50;0.50;;;;;;;21.97;25.91;99662.05;104643;1258;60705;-72
2023/05/01 08:38:15;;;;;;;1.50;0.50;;;;;;;22.05;25.71;99660.23;104854;1256;60622;-69
2023/05/01 08:40:46;;;;;;;2.20;0.30;;;;;;;22.07;24.72;99664.71;104776;1259;76628;-73
2023/05/01 08:43:13;;;;;;;1.50;0.60;;;;;;;22.12;25.33;99666.58;104829;1251;70260;-72
2023/05/01 08:45:40;;;;;;;0.70;0.50;;;;;;;22.17;25.65;99669.86;104652;1256;72846;-70
2023/05/01 08:48:09;;;;;;;0.50;0.50;;;;;;;22.33;25.58;99676.19;104585;1257;60481;-68
2023/05/01 08:50:36;;;;;;;0.90;0.50;;;;;;;22.46;24.95;99676.08;104561;1256;62784;-66
2023/05/01 08:53:04;;;;;;;3.10;0.50;;;;;;;22.55;25.15;99672.86;104529;1259;73129;-66
2023/05/01 08:55:31;;;;;;;0.20;0.20;;;;;;;22.52;24.84;99673.00;104415;1264;70179;-69
2023/05/01 08:57:58;;;;;;;1.90;0.60;;;;;;;22.50;24.77;99673.35;104639;1259;72110;-68
2023/05/01 09:00:26;;;;;;;2.20;0.60;;;;;;;22.58;24.61;99677.23;104487;1256;60755;-68
2023/05/01 09:02:54;;;;;;;1.10;0.40;;;;;;;22.66;24.94;99679.73;104400;1260;60636;-68
2023/05/01 09:05:21;;;;;;;2.10;0.50;;;;;;;22.82;25.29;99686.66;104798;1256;74755;-66
2023/05/01 09:07:48;;;;;;;1.40;0.60;;;;;;;22.84;24.82;99684.88;104747;1257;72010;-69
2023/05/01 09:10:17;;;;;;;1.30;0.50;;;;;;;22.83;24.45;99686.58;104765;1254;72705;-70
2023/05/01 09:12:46;;;;;;;0.70;0.60;;;;;;;22.79;24.79;99689.02;104775;1256;60711;-69
2023/05/01 09:15:14;;;;;;;0.60;0.50;;;;;;;22.89;24.36;99692.43;104723;1273;62228;-70
2023/05/01 09:17:41;;;;;;;1.80;0.50;;;;;;;22.95;24.20;99692.73;104416;1260;74728;-69
2023/05/01 09:20:09;;;;;;;0.40;0.40;;;;;;;23.04;24.28;99691.20;104612;1266;69790;-69
2023/05/01 09:22:36;;;;;;;0.40;0.40;;;;;;;23.10;24.08;99687.26;104443;1258;73977;-69
2023/05/01 09:25:04;;;;;;;0.80;0.50;;;;;;;23.14;24.19;99685.45;104600;1253;62211;-71
2023/05/01 09:27:33;;;;;;;1.90;0.40;;;;;;;23.19;23.37;99695.21;104688;1253;60767;-70
2023/05/01 09:30:01;;;;;;;0.60;0.40;;;;;;;23.22;23.36;99691.85;104680;1270;74088;-70
2023/05/01 09:32:28;;;;;;;0.60;0.50;;;;;;;23.33;23.33;99694.55;104536;1266;72375;-69
2023/05/01 09:35:09;;;;;;;2.60;0.50;;;;;;;23.39;22.78;99693.66;104475;1251;74009;-71
2023/05/01 09:37:36;;;;;;;1.10;0.30;;;;;;;23.41;23.41;99694.13;104500;1270;60562;-70
2023/05/01 09:40:11;;;;;;;2.20;0.50;;;;;;;23.46;23.58;99695.09;104700;1256;60284;-71
2023/05/01 09:42:38;;;;;;;0.40;0.40;;;;;;;23.56;22.84;99697.34;104686;1257;74059;-69
2023/05/01 09:45:15;;;;;;;;;;;;;;;23.39;22.75;99694.70;104995;1257;69668;-70
2023/05/01 09:47:45;;;;;;;3.90;0.50;;;;;;;23.51;23.08;99696.38;104765;1258;73945;-70
2023/05/01 09:50:28;;;;;;;0.80;0.50;;;;;;;23.57;23.08;99688.13;104545;1256;63728;-70
2023/05/01 09:52:55;;;;;;;2.40;0.40;;;;;;;23.62;23.10;99688.77;104507;1258;61438;-69
2023/05/01 09:55:23;;;;;;;0.70;0.40;;;;;;;23.67;23.35;99697.55;104515;1251;73092;-69
2023/05/01 09:57:52;;;;;;;1.30;0.30;;;;;;;23.68;22.70;99694.64;104444;1264;69953;-70
2023/05/01 10:00:20;;;;;;;0.90;0.60;;;;;;;23.69;22.16;99706.29;104837;1257;72643;-70
2023/05/01 10:02:48;;;;;;;1.30;0.60;;;;;;;23.67;22.45;99709.19;104645;1257;60634;-70
2023/05/01 10:05:17;;;;;;;1.10;0.50;;;;;;;23.72;22.60;99705.35;104863;1251;61534;-71
2023/05/01 10:08:01;;;;;;;0.90;0.50;;;;;;;23.68;22.38;99705.31;104783;1255;74037;-71
2023/05/01 10:10:28;;;;;;;2.60;0.70;;;;;;;23.66;21.99;99696.36;104442;1256;71885;-69
2023/05/01 10:12:55;;;;;;;0.80;0.40;;;;;;;23.53;22.50;99700.00;104275;1257;74037;-71
2023/05/01 10:15:23;;;;;;;3.70;0.50;;;;;;;23.69;22.86;99703.27;104556;1251;62995;-68
2023/05/01 10:17:53;;;;;;;0.40;0.30;;;;;;;23.82;22.97;99712.39;104618;1252;60685;-69
2023/05/01 10:20:21;;;;;;;6.20;0.70;;;;;;;23.97;22.33;99713.34;104526;1257;74021;-71
2023/05/01 10:22:49;;;;;;;0.70;0.40;;;;;;;23.95;22.06;99719.80;104656;1257;72097;-69
2023/05/01 10:25:16;;;;;;;1.20;0.70;;;;;;;23.93;22.01;99714.96;104619;1256;72829;-71
2023/05/01 10:27:44;;;;;;;2.20;0.50;;;;;;;23.92;22.45;99707.90;104681;1256;60640;-69
2023/05/01 10:30:11;;;;;;;1.90;0.60;;;;;;;24.03;22.24;99711.33;104394;1268;62093;-69
2023/05/01 10:32:40;;;;;;;0.30;0.30;;;;;;;24.11;22.51;99715.87;104410;1257;73749;-71
2023/05/01 10:35:10;;;;;;;0.40;0.30;;;;;;;24.20;22.14;99722.36;104459;1251;70052;-70
2023/05/01 10:37:37;;;;;;;1.30;0.30;;;;;;;24.21;22.57;99725.13;104259;1273;72967;-70
2023/05/01 10:40:42;;;;;;;1.70;0.50;;;;;;;24.16;22.44;99719.16;104291;1256;61453;-71
2023/05/01 10:43:27;;;;;;;2.40;0.50;;;;;;;24.07;22.32;99715.39;104592;1254;61047;-71
2023/05/01 10:46:20;;;;;;;2.50;0.40;;;;;;;23.98;22.21;99712.11;104792;1260;73148;-70
2023/05/01 10:48:54;;;;;;;1.50;0.70;;;;;;;23.96;22.31;99720.91;104603;1251;70070;-71
2023/05/01 10:51:26;;;;;;;1.40;0.40;;;;;;;24.00;22.78;99718.94;104763;1256;75211;-74
2023/05/01 10:54:12;;;;;;;0.40;0.40;;;;;;;24.13;22.61;99722.84;104613;1266;60564;-67
2023/05/01 10:56:41;;;;;;;1.20;0.50;;;;;;;24.23;22.65;99722.36;104317;1257;60840;-70
2023/05/01 10:59:10;;;;;;;1.20;0.50;;;;;;;24.32;22.59;99723.72;104801;1257;75195;-67
2023/05/01 11:01:38;;;;;;;1.50;0.50;;;;;;;24.40;22.62;99723.22;104679;1257;70799;-67
2023/05/01 11:04:07;;;;;;;0.60;0.40;;;;;;;24.48;22.28;99724.80;104645;1257;73269;-69
2023/05/01 11:06:35;;;;;;;3.50;0.50;;;;;;;24.57;21.98;99726.17;104573;1260;60653;-69
2023/05/01 11:09:38;;;;;;;0.80;0.50;;;;;;;24.56;22.20;99722.70;104837;1257;63002;-68
2023/05/01 11:12:05;;;;;;;0.90;0.60;;;;;;;24.57;22.07;99728.77;104596;1251;75652;-69
2023/05/01 11:15:07;;;;;;;3.90;0.70;;;;;;;24.55;22.26;99732.54;104524;1256;69379;-68
2023/05/01 11:17:41;;;;;;;0.90;0.40;;;;;;;24.59;22.30;99727.64;104838;1255;74887;-68
2023/05/01 11:20:10;;;;;;;2.50;0.50;;;;;;;24.67;21.62;99726.80;104508;1267;60443;-65
2023/05/01 11:22:39;;;;;;;0.80;0.40;;;;;;;24.75;21.34;99721.70;104465;1263;61383;-67
2023/05/01 11:25:26;;;;;;;1.00;0.60;;;;;;;24.83;21.26;99726.10;104396;1269;74491;-66
2023/05/01 11:27:55;;;;;;;1.00;0.50;;;;;;;24.91;21.41;99727.23;104418;1251;70699;-68
2023/05/01 11:30:22;;;;;;;2.80;0.70;;;;;;;24.93;20.40;99726.71;105025;1256;72580;-66
2023/05/01 11:32:50;;;;;;;0.40;0.30;;;;;;;24.98;20.53;99724.95;104421;1254;62747;-68
2023/05/01 11:35:21;;;;;;;1.80;0.60;;;;;;;24.94;21.01;99728.61;104666;1251;62320;-71
2023/05/01 11:37:50;;;;;;;1.60;0.50;;;;;;;24.94;20.57;99727.22;104710;1257;75745;-70
2023/05/01 11:40:21;;;;;;;0.30;0.30;;;;;;;24.91;21.09;99722.63;104428;1257;70030;-72
2023/05/01 11:42:49;;;;;;;0.80;0.50;;;;;;;25.01;21.10;99726.78;105135;1254;72590;-71